Time;durP1;ratioP1;P1;durP2;ratioP2;P2;SDS_P1;SDS_P2;PMS_P1;PMS_P2;Temp;Humidity;BMP_temperature;BMP_pressure;BME280_temperature;BME280_humidity;BME280_pressure;Samples;Min_cycle;Max_cycle;Signal;HPM_P1;HPM_P2
2024/01/13 00:01:22;;;;;;;39.00;14.33;;;;;;;;;;5036864;28;20385;-74
2024/01/13 00:03:47;;;;;;;41.17;14.27;;;;;;;;;;5038578;28;20249;-75
2024/01/13 00:06:13;;;;;;;43.43;14.30;;;;;;;;;;5054096;28;20251;-73
2024/01/13 00:08:39;;;;;;;41.53;14.63;;;;;;;;;;5054008;28;20304;-72
2024/01/13 00:11:04;;;;;;;39.43;14.67;;;;;;;;;;5036885;28;20267;-71
2024/01/13 00:13:29;;;;;;;42.90;14.43;;;;;;;;;;5053191;28;20225;-71
2024/01/13 00:15:55;;;;;;;39.40;14.37;;;;;;;;;;5055876;28;20230;-72
2024/01/13 00:18:21;;;;;;;38.83;14.43;;;;;;;;;;5046126;28;20715;-72
2024/01/13 00:20:46;;;;;;;40.63;14.33;;;;;;;;;;5061952;28;20236;-72
2024/01/13 00:23:11;;;;;;;35.07;14.10;;;;;;;;;;5057308;28;20737;-71
2024/01/13 00:25:37;;;;;;;33.00;12.40;;;;;;;;;;5052123;28;20864;-73
2024/01/13 00:28:02;;;;;;;36.13;12.93;;;;;;;;;;5040110;28;20249;-72
2024/01/13 00:30:27;;;;;;;37.60;13.07;;;;;;;;;;5048389;28;20291;-72
2024/01/13 00:32:53;;;;;;;35.80;12.50;;;;;;;;;;5045074;28;20261;-72
2024/01/13 00:35:18;;;;;;;38.07;13.13;;;;;;;;;;5052844;28;20225;-72
2024/01/13 00:37:44;;;;;;;32.97;12.40;;;;;;;;;;5061430;28;20228;-72
2024/01/13 00:40:10;;;;;;;38.50;12.73;;;;;;;;;;5053199;28;20768;-72
2024/01/13 00:42:36;;;;;;;32.63;12.37;;;;;;;;;;5039635;28;20312;-72
2024/01/13 00:45:01;;;;;;;36.53;13.17;;;;;;;;;;5052008;28;20304;-72
2024/01/13 00:47:26;;;;;;;35.13;12.43;;;;;;;;;;5051767;28;20252;-71
2024/01/13 00:49:52;;;;;;;39.37;12.97;;;;;;;;;;5050246;28;20252;-73
2024/01/13 00:52:17;;;;;;;37.60;13.63;;;;;;;;;;5055792;28;20725;-73
2024/01/13 00:54:44;;;;;;;38.60;13.50;;;;;;;;;;5038162;28;20705;-73
2024/01/13 00:57:09;;;;;;;36.73;13.43;;;;;;;;;;5051294;28;20723;-72
2024/01/13 00:59:35;;;;;;;37.50;13.80;;;;;;;;;;5036908;28;20229;-73
2024/01/13 01:02:00;;;;;;;35.30;13.63;;;;;;;;;;5035103;28;20287;-72
2024/01/13 01:04:25;;;;;;;35.80;13.67;;;;;;;;;;5054542;28;20228;-72
2024/01/13 01:06:51;;;;;;;36.37;13.00;;;;;;;;;;5053736;28;21120;-73
2024/01/13 01:09:16;;;;;;;40.10;13.53;;;;;;;;;;5037155;28;20229;-72
2024/01/13 01:11:42;;;;;;;38.53;13.50;;;;;;;;;;5048888;28;20240;-73
2024/01/13 01:14:08;;;;;;;38.97;13.20;;;;;;;;;;5034870;28;20243;-72
2024/01/13 01:16:33;;;;;;;39.70;13.40;;;;;;;;;;5051993;28;20237;-72
2024/01/13 01:18:59;;;;;;;38.13;13.90;;;;;;;;;;5038402;28;20225;-72
2024/01/13 01:21:24;;;;;;;34.37;12.67;;;;;;;;;;5052288;28;20239;-72
2024/01/13 01:23:49;;;;;;;35.93;12.33;;;;;;;;;;5031388;28;20287;-73
2024/01/13 01:26:15;;;;;;;37.13;13.30;;;;;;;;;;5035886;28;20225;-72
2024/01/13 01:28:40;;;;;;;34.90;13.23;;;;;;;;;;5034679;28;20239;-72
2024/01/13 01:31:06;;;;;;;39.60;13.53;;;;;;;;;;5050863;28;20233;-72
2024/01/13 01:33:31;;;;;;;39.57;13.67;;;;;;;;;;5049271;28;20225;-72
2024/01/13 01:35:56;;;;;;;38.27;13.20;;;;;;;;;;5047260;28;20233;-72
2024/01/13 01:38:22;;;;;;;36.23;12.77;;;;;;;;;;5046435;28;20284;-72
2024/01/13 01:40:54;;;;;;;37.17;13.00;;;;;;;;;;5052825;28;20829;-72
2024/01/13 01:43:19;;;;;;;38.20;13.93;;;;;;;;;;5049278;28;20217;-72
2024/01/13 01:45:45;;;;;;;37.80;13.90;;;;;;;;;;5058937;28;20260;-72
2024/01/13 01:48:10;;;;;;;43.00;14.40;;;;;;;;;;5049342;28;20232;-72
2024/01/13 01:50:36;;;;;;;38.53;13.90;;;;;;;;;;5050873;28;20237;-73
2024/01/13 01:53:01;;;;;;;37.70;13.87;;;;;;;;;;5042047;28;20225;-72
2024/01/13 01:55:26;;;;;;;38.90;13.50;;;;;;;;;;5051481;28;20267;-73
2024/01/13 01:57:52;;;;;;;39.30;13.80;;;;;;;;;;5037590;28;20237;-72
2024/01/13 02:00:21;;;;;;;39.13;14.53;;;;;;;;;;5050102;28;20981;-72
2024/01/13 02:02:46;;;;;;;37.97;13.93;;;;;;;;;;5048861;28;20225;-73
2024/01/13 02:05:11;;;;;;;38.93;13.33;;;;;;;;;;5036761;28;20611;-72
2024/01/13 02:07:37;;;;;;;35.67;13.07;;;;;;;;;;5051095;28;20324;-75
2024/01/13 02:10:03;;;;;;;38.17;13.30;;;;;;;;;;5053224;28;20319;-74
2024/01/13 02:12:28;;;;;;;38.80;13.87;;;;;;;;;;5052296;28;20793;-74
2024/01/13 02:14:54;;;;;;;36.87;13.47;;;;;;;;;;5035254;28;20694;-71
2024/01/13 02:17:20;;;;;;;37.70;13.70;;;;;;;;;;5038534;28;20228;-72
2024/01/13 02:19:46;;;;;;;39.23;13.47;;;;;;;;;;5052168;28;20227;-72
2024/01/13 02:22:11;;;;;;;41.33;14.47;;;;;;;;;;5052324;28;20229;-72
2024/01/13 02:24:36;;;;;;;40.07;14.40;;;;;;;;;;5051480;28;20260;-72
2024/01/13 02:27:02;;;;;;;37.57;13.47;;;;;;;;;;5059933;28;20216;-74
2024/01/13 02:29:27;;;;;;;35.50;12.90;;;;;;;;;;5044222;28;20232;-74
2024/01/13 02:31:53;;;;;;;41.03;13.60;;;;;;;;;;5049989;28;20298;-74
2024/01/13 02:34:18;;;;;;;37.03;13.63;;;;;;;;;;5049658;28;20217;-75
2024/01/13 02:36:43;;;;;;;39.13;13.60;;;;;;;;;;5036602;28;20232;-75
2024/01/13 02:39:09;;;;;;;38.23;14.00;;;;;;;;;;5052925;28;20231;-75
2024/01/13 02:41:34;;;;;;;41.80;15.10;;;;;;;;;;5058370;28;20225;-75
2024/01/13 02:43:59;;;;;;;40.17;14.50;;;;;;;;;;5056636;28;20223;-74
2024/01/13 02:46:25;;;;;;;40.60;14.13;;;;;;;;;;5055387;28;20289;-74
2024/01/13 02:48:54;;;;;;;36.80;13.40;;;;;;;;;;5042964;28;20225;-76
2024/01/13 02:51:20;;;;;;;37.17;13.33;;;;;;;;;;5052561;28;20252;-74
2024/01/13 02:53:45;;;;;;;39.60;14.27;;;;;;;;;;5046511;28;20962;-74
2024/01/13 02:56:10;;;;;;;38.93;14.43;;;;;;;;;;5049883;28;20317;-74
2024/01/13 02:58:36;;;;;;;40.50;14.63;;;;;;;;;;5051379;28;20228;-74
2024/01/13 03:01:06;;;;;;;42.07;15.03;;;;;;;;;;5037854;28;20231;-75
2024/01/13 03:03:33;;;;;;;36.87;12.97;;;;;;;;;;5031462;28;20361;-74
2024/01/13 03:05:58;;;;;;;32.20;12.67;;;;;;;;;;5255835;23;20237;-72
2024/01/13 03:08:59;;;;;;;40.83;15.30;;;;;;;;;;5240080;22;20222;-72
2024/01/13 03:11:24;;;;;;;40.30;14.47;;;;;;;;;;5044389;28;20233;-72
2024/01/13 03:13:49;;;;;;;37.87;14.07;;;;;;;;;;5042301;28;20233;-71
2024/01/13 03:16:15;;;;;;;42.50;14.50;;;;;;;;;;5043872;28;20232;-72
2024/01/13 03:18:40;;;;;;;40.53;14.33;;;;;;;;;;5042939;28;20229;-72
2024/01/13 03:21:06;;;;;;;40.47;13.70;;;;;;;;;;5028318;28;20225;-72
2024/01/13 03:23:31;;;;;;;38.33;13.77;;;;;;;;;;5044758;28;20256;-72
2024/01/13 03:25:57;;;;;;;39.77;13.67;;;;;;;;;;5027886;28;20243;-72
2024/01/13 03:28:22;;;;;;;39.30;14.43;;;;;;;;;;5044014;28;20217;-72
2024/01/13 03:30:48;;;;;;;40.53;14.43;;;;;;;;;;5042950;28;20240;-72
2024/01/13 03:33:14;;;;;;;40.57;14.60;;;;;;;;;;5043765;28;20280;-72
2024/01/13 03:35:39;;;;;;;38.50;13.03;;;;;;;;;;5043571;28;20966;-72
2024/01/13 03:38:05;;;;;;;37.13;13.50;;;;;;;;;;5026730;28;20222;-75
2024/01/13 03:40:30;;;;;;;39.67;13.60;;;;;;;;;;5043895;28;20224;-74
2024/01/13 03:42:55;;;;;;;40.60;14.17;;;;;;;;;;5042532;28;20225;-74
2024/01/13 03:45:21;;;;;;;39.17;14.30;;;;;;;;;;5043643;28;20229;-74
2024/01/13 03:47:46;;;;;;;36.10;13.03;;;;;;;;;;5045426;28;20308;-75
2024/01/13 03:50:11;;;;;;;34.43;12.73;;;;;;;;;;5027298;28;20282;-74
2024/01/13 03:52:37;;;;;;;33.13;11.00;;;;;;;;;;5043123;28;20226;-73
2024/01/13 03:55:02;;;;;;;37.13;13.47;;;;;;;;;;5044004;28;20594;-74
2024/01/13 03:57:27;;;;;;;44.70;14.67;;;;;;;;;;5043490;28;20233;-74
2024/01/13 03:59:53;;;;;;;36.67;13.53;;;;;;;;;;5042741;28;20312;-74
2024/01/13 04:02:18;;;;;;;36.50;13.97;;;;;;;;;;5042783;28;20266;-74
2024/01/13 04:04:43;;;;;;;37.67;13.97;;;;;;;;;;5027255;28;20225;-75
2024/01/13 04:07:10;;;;;;;40.07;14.40;;;;;;;;;;5042968;28;20237;-75
2024/01/13 04:09:35;;;;;;;40.37;14.70;;;;;;;;;;5041930;28;20287;-73
2024/01/13 04:12:00;;;;;;;44.37;14.90;;;;;;;;;;5026627;28;20340;-74
2024/01/13 04:14:26;;;;;;;37.33;14.40;;;;;;;;;;5042083;28;20320;-74
2024/01/13 04:16:51;;;;;;;40.17;14.33;;;;;;;;;;5026906;28;20706;-74
2024/01/13 04:19:17;;;;;;;40.17;14.17;;;;;;;;;;5026632;28;20685;-74
2024/01/13 04:21:42;;;;;;;40.20;14.07;;;;;;;;;;5042806;28;20218;-74
2024/01/13 04:24:08;;;;;;;37.23;13.77;;;;;;;;;;5042768;28;20628;-74
2024/01/13 04:26:34;;;;;;;36.90;13.20;;;;;;;;;;5027608;28;20221;-75
2024/01/13 04:28:59;;;;;;;38.57;13.60;;;;;;;;;;5026856;28;20225;-74
2024/01/13 04:31:25;;;;;;;38.27;14.23;;;;;;;;;;5041846;28;20320;-75
2024/01/13 04:33:50;;;;;;;37.03;13.67;;;;;;;;;;5027853;28;20233;-75
2024/01/13 04:36:15;;;;;;;40.47;14.20;;;;;;;;;;5044352;28;20232;-73
2024/01/13 04:38:41;;;;;;;39.27;14.33;;;;;;;;;;5042997;28;20279;-74
2024/01/13 04:41:06;;;;;;;38.37;14.27;;;;;;;;;;5026815;28;20696;-74
2024/01/13 04:43:33;;;;;;;38.33;14.27;;;;;;;;;;5043240;28;20262;-74
2024/01/13 04:45:58;;;;;;;42.50;15.40;;;;;;;;;;5028359;28;20226;-75
2024/01/13 04:48:23;;;;;;;38.27;14.53;;;;;;;;;;5026026;28;20232;-75
2024/01/13 04:50:50;;;;;;;38.37;13.53;;;;;;;;;;5044122;28;20731;-75
2024/01/13 04:53:15;;;;;;;41.60;14.37;;;;;;;;;;5043005;28;20305;-75
2024/01/13 04:55:41;;;;;;;40.70;14.00;;;;;;;;;;5044673;28;20312;-74
2024/01/13 04:58:06;;;;;;;39.47;14.17;;;;;;;;;;5025093;28;20226;-75
2024/01/13 05:00:33;;;;;;;40.90;14.23;;;;;;;;;;5025220;28;20310;-75
2024/01/13 05:02:58;;;;;;;42.40;14.23;;;;;;;;;;5026866;28;20312;-74
2024/01/13 05:05:24;;;;;;;38.13;13.87;;;;;;;;;;5044248;28;20670;-75
2024/01/13 05:07:49;;;;;;;40.93;14.63;;;;;;;;;;5043181;28;20724;-75
2024/01/13 05:10:14;;;;;;;40.87;14.67;;;;;;;;;;5064097;28;20234;-73
2024/01/13 05:12:40;;;;;;;39.13;14.13;;;;;;;;;;5045342;28;20221;-74
2024/01/13 05:15:05;;;;;;;40.23;13.83;;;;;;;;;;5065228;28;20222;-75
2024/01/13 05:17:31;;;;;;;37.13;13.27;;;;;;;;;;5028707;28;20232;-75
2024/01/13 05:19:56;;;;;;;37.87;14.43;;;;;;;;;;5020893;28;20742;-74
2024/01/13 05:22:21;;;;;;;43.17;14.37;;;;;;;;;;5063923;28;20227;-75
2024/01/13 05:24:47;;;;;;;40.17;13.97;;;;;;;;;;5045850;28;20224;-75
2024/01/13 05:27:14;;;;;;;37.13;13.97;;;;;;;;;;5028916;28;20231;-75
2024/01/13 05:29:39;;;;;;;34.83;13.83;;;;;;;;;;5045206;28;20244;-74
2024/01/13 05:32:04;;;;;;;38.43;13.53;;;;;;;;;;5029632;28;20314;-74
2024/01/13 05:34:30;;;;;;;33.23;13.07;;;;;;;;;;5063905;28;20233;-75
2024/01/13 05:36:55;;;;;;;37.80;13.23;;;;;;;;;;5046094;28;20221;-74
2024/01/13 05:39:20;;;;;;;38.13;13.40;;;;;;;;;;5029355;28;20228;-72
2024/01/13 05:41:46;;;;;;;36.40;14.20;;;;;;;;;;5064302;28;20602;-72
2024/01/13 05:44:11;;;;;;;38.10;14.33;;;;;;;;;;5045990;28;20321;-72
2024/01/13 05:46:37;;;;;;;37.30;13.97;;;;;;;;;;5028296;28;20290;-72
2024/01/13 05:49:02;;;;;;;39.37;13.70;;;;;;;;;;5045444;28;20221;-72
2024/01/13 05:51:28;;;;;;;38.60;13.83;;;;;;;;;;5063448;28;20252;-72
2024/01/13 05:53:53;;;;;;;41.73;14.57;;;;;;;;;;5028588;28;20236;-72
2024/01/13 05:56:19;;;;;;;37.87;13.80;;;;;;;;;;5028816;28;20220;-72
2024/01/13 05:58:44;;;;;;;38.43;14.13;;;;;;;;;;5045118;28;20220;-72
2024/01/13 06:01:10;;;;;;;37.50;13.30;;;;;;;;;;5044838;28;20778;-72
2024/01/13 06:03:35;;;;;;;38.20;13.80;;;;;;;;;;5045482;28;20636;-72
2024/01/13 06:06:02;;;;;;;38.13;13.73;;;;;;;;;;5029201;28;20224;-73
2024/01/13 06:08:27;;;;;;;40.03;13.57;;;;;;;;;;5041844;28;20327;-73
2024/01/13 06:10:53;;;;;;;38.97;13.93;;;;;;;;;;5047762;28;20720;-72
2024/01/13 06:13:18;;;;;;;37.60;13.47;;;;;;;;;;5046142;28;20225;-72
2024/01/13 06:15:44;;;;;;;37.23;13.77;;;;;;;;;;5046120;28;20225;-71
2024/01/13 06:18:09;;;;;;;41.40;14.83;;;;;;;;;;5045584;28;20282;-72
2024/01/13 06:20:35;;;;;;;39.63;15.00;;;;;;;;;;5046285;28;20221;-70
2024/01/13 06:23:00;;;;;;;36.97;14.57;;;;;;;;;;5046624;28;20346;-72
2024/01/13 06:25:25;;;;;;;35.17;13.63;;;;;;;;;;5045632;28;20311;-72
2024/01/13 06:27:50;;;;;;;36.77;13.40;;;;;;;;;;5029898;28;20206;-72
2024/01/13 06:30:16;;;;;;;37.83;13.90;;;;;;;;;;5046524;28;20222;-73
2024/01/13 06:32:41;;;;;;;44.93;15.37;;;;;;;;;;5029836;28;20224;-72
2024/01/13 06:35:07;;;;;;;40.23;14.23;;;;;;;;;;5029455;28;20233;-72
2024/01/13 06:37:32;;;;;;;36.40;13.90;;;;;;;;;;5042577;28;20224;-73
2024/01/13 06:39:58;;;;;;;38.67;13.97;;;;;;;;;;5045133;28;20882;-72
2024/01/13 06:42:23;;;;;;;43.23;15.47;;;;;;;;;;5044769;28;20661;-72
2024/01/13 06:44:49;;;;;;;45.73;16.27;;;;;;;;;;5046484;28;20828;-72
2024/01/13 06:47:14;;;;;;;42.67;15.40;;;;;;;;;;5027131;28;20221;-73
2024/01/13 06:49:39;;;;;;;38.80;14.73;;;;;;;;;;5024970;28;20693;-73
2024/01/13 06:52:05;;;;;;;40.67;14.83;;;;;;;;;;5027093;28;20241;-73
2024/01/13 06:54:30;;;;;;;38.27;15.23;;;;;;;;;;5045007;28;20233;-72
2024/01/13 06:56:56;;;;;;;42.47;14.30;;;;;;;;;;5044857;28;20363;-73
2024/01/13 06:59:21;;;;;;;41.47;15.13;;;;;;;;;;5027815;28;20728;-75
2024/01/13 07:01:47;;;;;;;44.67;15.57;;;;;;;;;;5044238;28;20620;-75
2024/01/13 07:04:12;;;;;;;47.10;15.83;;;;;;;;;;5027947;28;20229;-73
2024/01/13 07:06:38;;;;;;;47.53;15.80;;;;;;;;;;5028399;28;20290;-74
2024/01/13 07:09:03;;;;;;;39.03;14.67;;;;;;;;;;5019273;28;20237;-73
2024/01/13 07:11:29;;;;;;;37.90;14.63;;;;;;;;;;5024691;28;20309;-73
2024/01/13 07:13:54;;;;;;;37.37;14.33;;;;;;;;;;5026164;28;20222;-73
2024/01/13 07:16:19;;;;;;;38.87;14.80;;;;;;;;;;5026001;28;20226;-73
2024/01/13 07:18:45;;;;;;;47.97;14.70;;;;;;;;;;5025744;28;20309;-73
2024/01/13 07:21:10;;;;;;;44.40;15.60;;;;;;;;;;5025452;28;20237;-73
2024/01/13 07:23:36;;;;;;;41.60;15.43;;;;;;;;;;5009824;28;20257;-73
2024/01/13 07:26:01;;;;;;;43.67;14.93;;;;;;;;;;5025869;28;20219;-73
2024/01/13 07:28:27;;;;;;;46.20;14.37;;;;;;;;;;5025656;28;20236;-72
2024/01/13 07:30:52;;;;;;;40.90;14.93;;;;;;;;;;5027272;28;20230;-73
2024/01/13 07:33:17;;;;;;;39.33;14.07;;;;;;;;;;5024819;28;20222;-73
2024/01/13 07:35:43;;;;;;;44.27;13.97;;;;;;;;;;5027510;28;20287;-73
2024/01/13 07:38:09;;;;;;;45.00;13.80;;;;;;;;;;5028227;28;20710;-73
2024/01/13 07:40:35;;;;;;;35.87;13.73;;;;;;;;;;5022577;28;21148;-73
2024/01/13 07:43:00;;;;;;;38.90;13.90;;;;;;;;;;5011525;28;20226;-72
2024/01/13 07:45:25;;;;;;;38.63;14.50;;;;;;;;;;5023553;28;20276;-73
2024/01/13 07:47:51;;;;;;;46.23;15.93;;;;;;;;;;5008514;28;21103;-72
2024/01/13 07:50:17;;;;;;;43.80;15.80;;;;;;;;;;5026726;28;20279;-72
2024/01/13 07:52:42;;;;;;;40.50;15.20;;;;;;;;;;5016847;28;20224;-72
2024/01/13 07:55:07;;;;;;;40.40;15.53;;;;;;;;;;5026155;28;20229;-71
2024/01/13 07:57:33;;;;;;;40.77;14.57;;;;;;;;;;5027044;28;20222;-72
2024/01/13 08:00:00;;;;;;;40.17;14.97;;;;;;;;;;5026192;28;20280;-72
2024/01/13 08:02:26;;;;;;;39.27;14.27;;;;;;;;;;5008848;28;20226;-73
2024/01/13 08:04:51;;;;;;;40.23;14.53;;;;;;;;;;5023945;28;20610;-72
2024/01/13 08:07:17;;;;;;;46.20;15.10;;;;;;;;;;5023664;28;20724;-73
2024/01/13 08:09:42;;;;;;;41.83;15.23;;;;;;;;;;5039003;28;20278;-73
2024/01/13 08:12:07;;;;;;;37.23;14.93;;;;;;;;;;5043709;28;20233;-73
2024/01/13 08:14:33;;;;;;;37.90;15.03;;;;;;;;;;5026330;28;20759;-73
2024/01/13 08:16:58;;;;;;;38.93;14.83;;;;;;;;;;5041855;28;20287;-73
2024/01/13 08:19:23;;;;;;;38.43;15.07;;;;;;;;;;5039635;28;20229;-73
2024/01/13 08:21:52;;;;;;;38.70;14.13;;;;;;;;;;5026679;28;20306;-74
2024/01/13 08:24:17;;;;;;;38.30;14.23;;;;;;;;;;5025942;28;20329;-73
2024/01/13 08:26:43;;;;;;;34.37;13.63;;;;;;;;;;5044411;28;20316;-73
2024/01/13 08:29:08;;;;;;;35.37;13.30;;;;;;;;;;5024712;28;20318;-73
2024/01/13 08:31:34;;;;;;;31.17;11.90;;;;;;;;;;5041340;28;20240;-74
2024/01/13 08:33:59;;;;;;;32.63;11.97;;;;;;;;;;5043350;28;20225;-72
2024/01/13 08:36:25;;;;;;;37.37;13.63;;;;;;;;;;5026682;28;20217;-73
2024/01/13 08:38:50;;;;;;;34.03;13.90;;;;;;;;;;5044774;28;20249;-73
2024/01/13 08:41:16;;;;;;;32.17;12.53;;;;;;;;;;5044680;28;20210;-73
2024/01/13 08:43:41;;;;;;;33.07;13.03;;;;;;;;;;5044489;28;20221;-74
2024/01/13 08:46:07;;;;;;;40.23;13.10;;;;;;;;;;5026747;28;20229;-74
2024/01/13 08:48:32;;;;;;;34.63;13.57;;;;;;;;;;5043421;28;20222;-73
2024/01/13 08:50:57;;;;;;;30.00;12.00;;;;;;;;;;5026754;28;20218;-73
2024/01/13 08:53:23;;;;;;;28.37;12.23;;;;;;;;;;5042904;28;20222;-74
2024/01/13 08:55:48;;;;;;;27.47;11.60;;;;;;;;;;5046385;28;20222;-73
2024/01/13 08:58:14;;;;;;;27.60;11.63;;;;;;;;;;5043496;28;20221;-74
2024/01/13 09:00:39;;;;;;;31.67;11.90;;;;;;;;;;5042490;28;20889;-72
2024/01/13 09:03:04;;;;;;;28.03;11.57;;;;;;;;;;5042991;28;20221;-73
2024/01/13 09:05:30;;;;;;;32.23;11.50;;;;;;;;;;5026399;28;20230;-73
2024/01/13 09:07:57;;;;;;;27.53;11.43;;;;;;;;;;5043677;28;20236;-74
2024/01/13 09:10:22;;;;;;;29.03;10.83;;;;;;;;;;5023053;28;20998;-73
2024/01/13 09:12:47;;;;;;;23.80;9.83;;;;;;;;;;5030441;28;20303;-73
2024/01/13 09:15:13;;;;;;;28.37;11.00;;;;;;;;;;5029884;28;20315;-74
2024/01/13 09:17:39;;;;;;;27.37;10.47;;;;;;;;;;5044880;28;20247;-73
2024/01/13 09:20:05;;;;;;;28.30;10.90;;;;;;;;;;5046959;28;20681;-72
2024/01/13 09:22:30;;;;;;;36.27;11.17;;;;;;;;;;5045180;28;20228;-72
2024/01/13 09:24:55;;;;;;;28.40;11.30;;;;;;;;;;5064757;28;20228;-71
2024/01/13 09:27:21;;;;;;;30.30;11.60;;;;;;;;;;5029188;28;20278;-72
2024/01/13 09:29:47;;;;;;;28.73;10.90;;;;;;;;;;5029689;28;20772;-72
2024/01/13 09:32:12;;;;;;;27.50;10.70;;;;;;;;;;5046473;28;20236;-73
2024/01/13 09:34:38;;;;;;;29.97;11.63;;;;;;;;;;5045566;28;20662;-73
2024/01/13 09:37:03;;;;;;;27.80;11.17;;;;;;;;;;5044251;28;20294;-74
2024/01/13 09:39:29;;;;;;;24.43;10.77;;;;;;;;;;5044250;28;20233;-73
2024/01/13 09:41:55;;;;;;;25.40;10.80;;;;;;;;;;5028794;28;20228;-73
2024/01/13 09:44:24;;;;;;;25.80;11.03;;;;;;;;;;5028862;28;21269;-74
2024/01/13 09:46:51;;;;;;;25.70;10.30;;;;;;;;;;5028911;28;20316;-74
2024/01/13 09:49:17;;;;;;;29.27;9.67;;;;;;;;;;5028346;28;20235;-73
2024/01/13 09:51:43;;;;;;;28.63;10.20;;;;;;;;;;5044540;28;20279;-73
2024/01/13 09:54:10;;;;;;;25.63;9.37;;;;;;;;;;5029603;28;20236;-73
2024/01/13 09:56:37;;;;;;;24.37;8.90;;;;;;;;;;5044037;28;20221;-74
2024/01/13 09:59:03;;;;;;;23.17;9.93;;;;;;;;;;5046029;28;20818;-72
2024/01/13 10:01:28;;;;;;;22.03;9.77;;;;;;;;;;5063983;28;20213;-73
2024/01/13 10:03:53;;;;;;;23.07;9.87;;;;;;;;;;5062205;28;20213;-73
2024/01/13 10:06:19;;;;;;;20.33;9.30;;;;;;;;;;5045055;28;20232;-74
2024/01/13 10:08:46;;;;;;;21.17;9.37;;;;;;;;;;5045029;28;20236;-72
2024/01/13 10:11:11;;;;;;;25.27;9.50;;;;;;;;;;5045406;28;20239;-72
2024/01/13 10:13:36;;;;;;;24.53;10.10;;;;;;;;;;5044980;28;20733;-72
2024/01/13 10:16:02;;;;;;;24.37;10.37;;;;;;;;;;5063782;28;20225;-72
2024/01/13 10:18:28;;;;;;;24.67;9.20;;;;;;;;;;5028474;28;20216;-72
2024/01/13 10:20:53;;;;;;;22.47;9.97;;;;;;;;;;5043623;28;20608;-73
2024/01/13 10:23:19;;;;;;;20.13;9.37;;;;;;;;;;5045020;28;20224;-72
2024/01/13 10:25:45;;;;;;;24.50;9.63;;;;;;;;;;5044481;28;20717;-72
2024/01/13 10:28:10;;;;;;;22.70;9.43;;;;;;;;;;5061751;28;20267;-72
2024/01/13 10:30:35;;;;;;;18.73;9.00;;;;;;;;;;5028919;28;20240;-72
2024/01/13 10:33:01;;;;;;;22.57;9.50;;;;;;;;;;5045371;28;20221;-73
2024/01/13 10:35:27;;;;;;;20.57;9.10;;;;;;;;;;5027252;28;20653;-73
2024/01/13 10:37:55;;;;;;;20.13;8.63;;;;;;;;;;5029074;28;20225;-71
2024/01/13 10:40:20;;;;;;;20.47;9.10;;;;;;;;;;5027995;28;20259;-73
2024/01/13 10:42:47;;;;;;;21.37;8.90;;;;;;;;;;5028512;28;20228;-72
2024/01/13 10:45:14;;;;;;;19.33;8.63;;;;;;;;;;5063000;28;20237;-73
2024/01/13 10:47:43;;;;;;;19.57;8.90;;;;;;;;;;5044325;28;20219;-74
2024/01/13 10:50:10;;;;;;;17.60;7.77;;;;;;;;;;5061610;28;20309;-73
2024/01/13 10:52:43;;;;;;;18.20;7.97;;;;;;;;;;5030127;28;20917;-72
2024/01/13 10:55:08;;;;;;;19.73;8.23;;;;;;;;;;5048645;28;20224;-72
2024/01/13 10:57:34;;;;;;;18.63;8.07;;;;;;;;;;5030973;28;20228;-71
2024/01/13 10:59:59;;;;;;;22.03;9.20;;;;;;;;;;5067021;28;20225;-72
2024/01/13 11:02:26;;;;;;;20.63;8.63;;;;;;;;;;5048590;28;20282;-72
2024/01/13 11:04:52;;;;;;;20.60;8.90;;;;;;;;;;5063907;28;20242;-72
2024/01/13 11:07:19;;;;;;;20.87;8.30;;;;;;;;;;5031491;28;20249;-71
2024/01/13 11:09:44;;;;;;;22.23;9.27;;;;;;;;;;5066202;28;20236;-72
2024/01/13 11:12:11;;;;;;;21.17;9.03;;;;;;;;;;5048734;28;20236;-72
2024/01/13 11:14:38;;;;;;;22.27;8.87;;;;;;;;;;5047539;28;20229;-71
2024/01/13 11:17:04;;;;;;;22.10;9.10;;;;;;;;;;5065195;28;21066;-72
2024/01/13 11:19:33;;;;;;;23.47;10.00;;;;;;;;;;5047399;28;20233;-72
2024/01/13 11:21:59;;;;;;;26.47;9.83;;;;;;;;;;5048987;28;20249;-71
2024/01/13 11:24:24;;;;;;;24.93;9.93;;;;;;;;;;5065195;28;20878;-72
2024/01/13 11:26:50;;;;;;;24.23;10.50;;;;;;;;;;5031585;28;20230;-72
2024/01/13 11:29:16;;;;;;;26.17;10.77;;;;;;;;;;5048131;28;20234;-71
2024/01/13 11:31:41;;;;;;;24.17;10.50;;;;;;;;;;5046753;28;20232;-71
2024/01/13 11:34:10;;;;;;;24.50;10.30;;;;;;;;;;5048122;28;20766;-72
2024/01/13 11:36:39;;;;;;;23.97;10.63;;;;;;;;;;5047209;28;20235;-72
2024/01/13 11:39:05;;;;;;;27.43;10.27;;;;;;;;;;5031489;28;21133;-72
2024/01/13 11:41:38;;;;;;;24.90;11.00;;;;;;;;;;5047553;28;20319;-72
2024/01/13 11:44:03;;;;;;;23.53;10.10;;;;;;;;;;5031312;28;20392;-72
2024/01/13 11:46:29;;;;;;;25.23;10.77;;;;;;;;;;5047095;28;20316;-72
2024/01/13 11:49:00;;;;;;;27.97;11.17;;;;;;;;;;5047637;28;20228;-73
2024/01/13 11:51:30;;;;;;;25.20;11.00;;;;;;;;;;5064389;28;20225;-71
2024/01/13 11:53:56;;;;;;;28.17;11.30;;;;;;;;;;5030474;28;20225;-71
2024/01/13 11:56:22;;;;;;;23.20;10.07;;;;;;;;;;5030924;28;20232;-73
2024/01/13 11:58:47;;;;;;;25.23;10.63;;;;;;;;;;5047440;28;20701;-72
2024/01/13 12:01:12;;;;;;;23.83;10.03;;;;;;;;;;5065308;28;20216;-72
2024/01/13 12:03:38;;;;;;;20.23;9.10;;;;;;;;;;5064255;28;20623;-72
2024/01/13 12:06:04;;;;;;;25.53;10.30;;;;;;;;;;5046843;28;20220;-71
2024/01/13 12:08:29;;;;;;;22.20;9.57;;;;;;;;;;5023508;28;20256;-72
2024/01/13 12:10:55;;;;;;;26.60;11.33;;;;;;;;;;5044461;28;20237;-72
2024/01/13 12:13:21;;;;;;;37.00;14.47;;;;;;;;;;5044098;28;20230;-73
2024/01/13 12:15:47;;;;;;;29.47;12.07;;;;;;;;;;5027793;28;20604;-71
2024/01/13 12:18:20;;;;;;;28.50;10.73;;;;;;;;;;5043767;28;20717;-72
2024/01/13 12:20:46;;;;;;;29.17;11.60;;;;;;;;;;5044723;28;20319;-72
2024/01/13 12:23:11;;;;;;;26.60;11.00;;;;;;;;;;5043369;28;20832;-72
2024/01/13 12:25:36;;;;;;;28.23;10.90;;;;;;;;;;5042792;28;20272;-72
2024/01/13 12:28:02;;;;;;;41.00;15.67;;;;;;;;;;5024789;28;20603;-72
2024/01/13 12:30:27;;;;;;;24.97;10.50;;;;;;;;;;5042258;28;20666;-71
2024/01/13 12:32:54;;;;;;;26.80;10.87;;;;;;;;;;5043932;28;21043;-74
2024/01/13 12:35:19;;;;;;;24.23;10.53;;;;;;;;;;5025559;28;20232;-73
2024/01/13 12:37:44;;;;;;;28.17;10.57;;;;;;;;;;5043091;28;20217;-72
2024/01/13 12:40:10;;;;;;;25.10;10.00;;;;;;;;;;5043161;28;20226;-72
2024/01/13 12:42:38;;;;;;;24.37;10.70;;;;;;;;;;5044040;28;23060;-71
2024/01/13 12:45:04;;;;;;;22.93;10.87;;;;;;;;;;5026076;28;20271;-73
2024/01/13 12:47:29;;;;;;;24.97;9.97;;;;;;;;;;5041875;28;20839;-73
2024/01/13 12:50:05;;;;;;;25.47;10.60;;;;;;;;;;5026486;28;20703;-72
2024/01/13 12:52:30;;;;;;;27.67;10.60;;;;;;;;;;5020056;28;20237;-73
2024/01/13 12:54:56;;;;;;;27.87;11.10;;;;;;;;;;5026988;28;20733;-72
2024/01/13 12:57:21;;;;;;;33.13;12.80;;;;;;;;;;5043813;28;20603;-72
2024/01/13 12:59:46;;;;;;;28.07;10.60;;;;;;;;;;5043302;28;20227;-72
2024/01/13 13:02:12;;;;;;;28.47;11.83;;;;;;;;;;5044948;28;20229;-71
2024/01/13 13:04:38;;;;;;;32.80;12.37;;;;;;;;;;5043338;28;20241;-73
2024/01/13 13:07:03;;;;;;;25.50;9.80;;;;;;;;;;5043085;28;20244;-72
2024/01/13 13:09:28;;;;;;;24.87;9.90;;;;;;;;;;5057504;28;20268;-71
2024/01/13 13:11:54;;;;;;;27.27;10.90;;;;;;;;;;5064750;28;20252;-74
2024/01/13 13:14:20;;;;;;;22.70;10.10;;;;;;;;;;5028794;28;20369;-74
2024/01/13 13:16:46;;;;;;;26.83;11.00;;;;;;;;;;5046102;28;20308;-74
2024/01/13 13:19:16;;;;;;;28.27;11.23;;;;;;;;;;5046096;28;20229;-72
2024/01/13 13:21:41;;;;;;;28.10;11.43;;;;;;;;;;5027136;28;20308;-72
2024/01/13 13:24:07;;;;;;;22.53;9.37;;;;;;;;;;5062256;28;20648;-73
2024/01/13 13:26:35;;;;;;;26.30;10.47;;;;;;;;;;5042702;28;20275;-72
2024/01/13 13:29:00;;;;;;;23.50;9.73;;;;;;;;;;5064048;28;20229;-72
2024/01/13 13:31:26;;;;;;;27.53;11.20;;;;;;;;;;5063790;28;20251;-73
2024/01/13 13:33:51;;;;;;;26.47;10.67;;;;;;;;;;5039882;28;20297;-72
2024/01/13 13:36:17;;;;;;;23.13;9.30;;;;;;;;;;5041643;28;20221;-72
2024/01/13 13:38:42;;;;;;;25.77;10.17;;;;;;;;;;5063434;28;20315;-73
2024/01/13 13:41:08;;;;;;;22.43;9.73;;;;;;;;;;5028982;28;20266;-72
2024/01/13 13:43:34;;;;;;;22.73;9.90;;;;;;;;;;5063241;28;20277;-71
2024/01/13 13:45:59;;;;;;;23.80;10.37;;;;;;;;;;5045824;28;20672;-71
2024/01/13 13:48:28;;;;;;;27.27;11.20;;;;;;;;;;5045448;28;20296;-72
2024/01/13 13:50:53;;;;;;;21.97;9.30;;;;;;;;;;5045442;28;20754;-73
2024/01/13 13:53:18;;;;;;;26.60;10.57;;;;;;;;;;5029245;28;20225;-73
2024/01/13 13:55:44;;;;;;;27.03;11.00;;;;;;;;;;5040725;28;20267;-73
2024/01/13 13:58:10;;;;;;;22.07;9.70;;;;;;;;;;5045559;28;20801;-72
2024/01/13 14:00:35;;;;;;;26.20;10.17;;;;;;;;;;5044523;28;20236;-73
2024/01/13 14:03:00;;;;;;;25.93;10.40;;;;;;;;;;5029420;28;20308;-75
2024/01/13 14:05:29;;;;;;;24.83;10.53;;;;;;;;;;5045271;28;20721;-73
2024/01/13 14:07:55;;;;;;;27.57;11.67;;;;;;;;;;5028780;28;20225;-72
2024/01/13 14:10:21;;;;;;;24.80;10.07;;;;;;;;;;5028978;28;20228;-74